Washington, Nebraska
Current Conditions -  °F | °C
As of 6:55 AM on Friday 28 Nov 2014 (Local Time) from KBTA Reporting Station
Clear Clear  
Wind Chill: -7°   Ceiling: Unl
Heat Index: -2°   Visibility: 10mi
Dew Point: -5°   Wind: 9mph
Humidity: 81%   Direction: 160°SSE
Pressure: 29.88"   Gusts: NA
Location:  41.4°N, 96.21°W
Report Text: KBTA 281255Z AUTO 16008KT 10SM CLR M02/M05 A2988 RMK AO2 T10231052
Loading
Personal Weather Stations






























Interactive Weather Map New forecast layout! Learn more

10-Day Weather Forecast

Advertisements
Track Severe Weather on mobile